sensor_id;sensor_type;location;lat;lon;timestamp;temperature;humidity
44063;DHT22;29727;47.606;19.130;2023-02-28T00:00:34;3.60;61.60
44063;DHT22;29727;47.606;19.130;2023-02-28T00:03:00;3.60;61.70
44063;DHT22;29727;47.606;19.130;2023-02-28T00:05:27;3.60;61.20
44063;DHT22;29727;47.606;19.130;2023-02-28T00:07:53;3.70;61.70
44063;DHT22;29727;47.606;19.130;2023-02-28T00:10:30;3.70;61.20
44063;DHT22;29727;47.606;19.130;2023-02-28T00:13:01;3.70;61.70
44063;DHT22;29727;47.606;19.130;2023-02-28T00:15:27;3.70;61.80
44063;DHT22;29727;47.606;19.130;2023-02-28T00:17:53;3.70;61.90
44063;DHT22;29727;47.606;19.130;2023-02-28T00:20:19;3.70;61.90
44063;DHT22;29727;47.606;19.130;2023-02-28T00:22:47;3.70;61.80
44063;DHT22;29727;47.606;19.130;2023-02-28T00:25:15;3.70;61.60
44063;DHT22;29727;47.606;19.130;2023-02-28T00:27:41;3.70;61.60
44063;DHT22;29727;47.606;19.130;2023-02-28T00:30:11;3.80;61.50
44063;DHT22;29727;47.606;19.130;2023-02-28T00:32:37;3.70;61.20
44063;DHT22;29727;47.606;19.130;2023-02-28T00:35:03;3.80;61.40
44063;DHT22;29727;47.606;19.130;2023-02-28T00:37:29;3.80;61.40
44063;DHT22;29727;47.606;19.130;2023-02-28T00:39:55;3.80;61.50
44063;DHT22;29727;47.606;19.130;2023-02-28T00:42:21;3.80;61.40
44063;DHT22;29727;47.606;19.130;2023-02-28T00:44:46;3.80;61.40
44063;DHT22;29727;47.606;19.130;2023-02-28T00:47:12;3.80;62.30
44063;DHT22;29727;47.606;19.130;2023-02-28T00:49:38;3.80;61.50
44063;DHT22;29727;47.606;19.130;2023-02-28T00:52:03;3.80;61.40
44063;DHT22;29727;47.606;19.130;2023-02-28T00:54:29;3.80;61.10
44063;DHT22;29727;47.606;19.130;2023-02-28T00:56:55;3.80;61.30
44063;DHT22;29727;47.606;19.130;2023-02-28T00:59:21;3.80;61.20
44063;DHT22;29727;47.606;19.130;2023-02-28T01:01:47;3.80;61.20
44063;DHT22;29727;47.606;19.130;2023-02-28T01:04:13;3.80;60.60
44063;DHT22;29727;47.606;19.130;2023-02-28T01:06:39;3.80;61.10
44063;DHT22;29727;47.606;19.130;2023-02-28T01:09:06;3.80;61.10
44063;DHT22;29727;47.606;19.130;2023-02-28T01:11:32;3.80;61.10
44063;DHT22;29727;47.606;19.130;2023-02-28T01:13:59;3.80;61.20
44063;DHT22;29727;47.606;19.130;2023-02-28T01:16:25;3.80;61.40
44063;DHT22;29727;47.606;19.130;2023-02-28T01:18:51;3.90;61.70
44063;DHT22;29727;47.606;19.130;2023-02-28T01:21:19;3.90;61.30
44063;DHT22;29727;47.606;19.130;2023-02-28T01:23:46;3.80;61.80
44063;DHT22;29727;47.606;19.130;2023-02-28T01:26:14;3.80;61.80
44063;DHT22;29727;47.606;19.130;2023-02-28T01:28:41;3.80;61.90
44063;DHT22;29727;47.606;19.130;2023-02-28T01:31:08;3.80;61.90
44063;DHT22;29727;47.606;19.130;2023-02-28T01:33:33;3.80;62.10
44063;DHT22;29727;47.606;19.130;2023-02-28T01:36:14;3.80;62.00
44063;DHT22;29727;47.606;19.130;2023-02-28T01:38:40;3.80;61.70
44063;DHT22;29727;47.606;19.130;2023-02-28T01:41:08;3.80;61.90
44063;DHT22;29727;47.606;19.130;2023-02-28T01:46:07;3.80;60.30
44063;DHT22;29727;47.606;19.130;2023-02-28T01:48:37;3.70;60.50
44063;DHT22;29727;47.606;19.130;2023-02-28T01:51:09;3.70;60.50
44063;DHT22;29727;47.606;19.130;2023-02-28T01:53:41;3.70;60.50
44063;DHT22;29727;47.606;19.130;2023-02-28T01:56:10;3.70;60.00
44063;DHT22;29727;47.606;19.130;2023-02-28T01:58:37;3.70;60.00
44063;DHT22;29727;47.606;19.130;2023-02-28T02:01:03;3.60;60.00
44063;DHT22;29727;47.606;19.130;2023-02-28T02:03:30;3.70;59.00
44063;DHT22;29727;47.606;19.130;2023-02-28T02:05:56;3.80;59.60
44063;DHT22;29727;47.606;19.130;2023-02-28T02:08:26;3.70;59.60
44063;DHT22;29727;47.606;19.130;2023-02-28T02:10:59;3.70;60.70
44063;DHT22;29727;47.606;19.130;2023-02-28T02:25:16;3.80;59.90
44063;DHT22;29727;47.606;19.130;2023-02-28T02:30:45;3.90;60.30
44063;DHT22;29727;47.606;19.130;2023-02-28T02:36:27;3.90;59.70
44063;DHT22;29727;47.606;19.130;2023-02-28T02:41:49;3.90;60.00
44063;DHT22;29727;47.606;19.130;2023-02-28T02:44:30;3.90;60.10
44063;DHT22;29727;47.606;19.130;2023-02-28T02:47:06;4.00;59.90
44063;DHT22;29727;47.606;19.130;2023-02-28T02:49:33;4.00;59.60
44063;DHT22;29727;47.606;19.130;2023-02-28T02:52:03;4.00;59.40
44063;DHT22;29727;47.606;19.130;2023-02-28T02:54:38;4.00;59.40
44063;DHT22;29727;47.606;19.130;2023-02-28T02:57:15;4.00;59.30
44063;DHT22;29727;47.606;19.130;2023-02-28T02:59:44;4.00;59.30
44063;DHT22;29727;47.606;19.130;2023-02-28T03:02:12;4.10;59.10
44063;DHT22;29727;47.606;19.130;2023-02-28T03:04:46;4.10;58.40
44063;DHT22;29727;47.606;19.130;2023-02-28T03:07:13;4.00;58.80
44063;DHT22;29727;47.606;19.130;2023-02-28T03:09:39;4.10;58.90
44063;DHT22;29727;47.606;19.130;2023-02-28T03:12:10;4.10;58.90
44063;DHT22;29727;47.606;19.130;2023-02-28T03:25:54;4.20;59.20
44063;DHT22;29727;47.606;19.130;2023-02-28T03:28:43;4.20;59.00
44063;DHT22;29727;47.606;19.130;2023-02-28T03:34:04;4.20;58.80
44063;DHT22;29727;47.606;19.130;2023-02-28T03:36:41;4.20;58.80
44063;DHT22;29727;47.606;19.130;2023-02-28T03:39:18;4.20;58.90
44063;DHT22;29727;47.606;19.130;2023-02-28T03:42:00;4.20;58.80
44063;DHT22;29727;47.606;19.130;2023-02-28T03:44:42;4.20;58.70
44063;DHT22;29727;47.606;19.130;2023-02-28T03:50:18;4.20;58.10
44063;DHT22;29727;47.606;19.130;2023-02-28T03:53:03;4.20;58.20
44063;DHT22;29727;47.606;19.130;2023-02-28T03:55:34;4.30;58.30
44063;DHT22;29727;47.606;19.130;2023-02-28T03:58:59;4.20;57.80
44063;DHT22;29727;47.606;19.130;2023-02-28T04:03:57;4.30;57.30
44063;DHT22;29727;47.606;19.130;2023-02-28T04:06:23;4.20;57.80
44063;DHT22;29727;47.606;19.130;2023-02-28T04:08:50;4.30;58.10
44063;DHT22;29727;47.606;19.130;2023-02-28T04:14:03;4.20;57.80
44063;DHT22;29727;47.606;19.130;2023-02-28T04:16:31;4.30;57.80
44063;DHT22;29727;47.606;19.130;2023-02-28T04:18:57;4.30;58.00
44063;DHT22;29727;47.606;19.130;2023-02-28T04:21:33;4.30;57.00
44063;DHT22;29727;47.606;19.130;2023-02-28T04:23:59;4.30;57.00
44063;DHT22;29727;47.606;19.130;2023-02-28T04:26:32;4.20;57.30
44063;DHT22;29727;47.606;19.130;2023-02-28T04:28:59;4.20;57.20
44063;DHT22;29727;47.606;19.130;2023-02-28T04:31:25;4.30;57.00
44063;DHT22;29727;47.606;19.130;2023-02-28T04:33:51;4.20;57.10
44063;DHT22;29727;47.606;19.130;2023-02-28T04:36:17;4.30;57.30
44063;DHT22;29727;47.606;19.130;2023-02-28T04:38:44;4.20;57.40
44063;DHT22;29727;47.606;19.130;2023-02-28T04:41:10;4.20;57.60
44063;DHT22;29727;47.606;19.130;2023-02-28T04:43:36;4.20;57.50
44063;DHT22;29727;47.606;19.130;2023-02-28T04:46:03;4.20;57.50
44063;DHT22;29727;47.606;19.130;2023-02-28T04:48:32;4.20;57.80
44063;DHT22;29727;47.606;19.130;2023-02-28T04:51:02;4.20;58.10
44063;DHT22;29727;47.606;19.130;2023-02-28T04:53:28;4.20;58.50
44063;DHT22;29727;47.606;19.130;2023-02-28T04:55:55;4.20;58.40
44063;DHT22;29727;47.606;19.130;2023-02-28T04:58:21;4.20;58.30
44063;DHT22;29727;47.606;19.130;2023-02-28T05:00:51;4.30;57.60
44063;DHT22;29727;47.606;19.130;2023-02-28T05:03:16;4.30;57.40
44063;DHT22;29727;47.606;19.130;2023-02-28T05:05:42;4.30;57.90
44063;DHT22;29727;47.606;19.130;2023-02-28T05:08:08;4.30;57.80
44063;DHT22;29727;47.606;19.130;2023-02-28T05:10:35;4.30;57.50
44063;DHT22;29727;47.606;19.130;2023-02-28T05:13:01;4.30;57.70
44063;DHT22;29727;47.606;19.130;2023-02-28T05:15:27;4.30;57.20
44063;DHT22;29727;47.606;19.130;2023-02-28T05:17:52;4.30;57.10
44063;DHT22;29727;47.606;19.130;2023-02-28T05:20:18;4.30;56.50
44063;DHT22;29727;47.606;19.130;2023-02-28T05:22:44;4.30;56.20
44063;DHT22;29727;47.606;19.130;2023-02-28T05:25:21;4.30;55.80
44063;DHT22;29727;47.606;19.130;2023-02-28T05:27:48;4.30;55.70
44063;DHT22;29727;47.606;19.130;2023-02-28T05:30:13;4.30;55.70
44063;DHT22;29727;47.606;19.130;2023-02-28T05:32:40;4.30;56.00
44063;DHT22;29727;47.606;19.130;2023-02-28T05:35:09;4.30;55.80
44063;DHT22;29727;47.606;19.130;2023-02-28T05:37:35;4.30;55.70
44063;DHT22;29727;47.606;19.130;2023-02-28T05:40:02;4.30;55.60
44063;DHT22;29727;47.606;19.130;2023-02-28T05:42:31;4.30;55.30
44063;DHT22;29727;47.606;19.130;2023-02-28T05:44:57;4.30;55.20
44063;DHT22;29727;47.606;19.130;2023-02-28T05:47:23;4.30;55.60
44063;DHT22;29727;47.606;19.130;2023-02-28T05:49:48;4.30;55.70
44063;DHT22;29727;47.606;19.130;2023-02-28T05:52:14;4.40;55.80
44063;DHT22;29727;47.606;19.130;2023-02-28T05:54:41;4.30;55.90
44063;DHT22;29727;47.606;19.130;2023-02-28T05:57:07;4.40;55.60
44063;DHT22;29727;47.606;19.130;2023-02-28T05:59:32;4.40;55.60
44063;DHT22;29727;47.606;19.130;2023-02-28T06:01:58;4.40;55.40
44063;DHT22;29727;47.606;19.130;2023-02-28T06:04:24;4.40;55.00
44063;DHT22;29727;47.606;19.130;2023-02-28T06:06:50;4.40;55.70
44063;DHT22;29727;47.606;19.130;2023-02-28T06:09:17;4.40;55.90
44063;DHT22;29727;47.606;19.130;2023-02-28T06:11:43;4.30;55.50
44063;DHT22;29727;47.606;19.130;2023-02-28T06:14:15;4.40;54.60
44063;DHT22;29727;47.606;19.130;2023-02-28T06:16:41;4.30;54.40
44063;DHT22;29727;47.606;19.130;2023-02-28T06:19:06;4.30;54.80
44063;DHT22;29727;47.606;19.130;2023-02-28T06:21:32;4.30;54.30
44063;DHT22;29727;47.606;19.130;2023-02-28T06:23:58;4.30;54.60
44063;DHT22;29727;47.606;19.130;2023-02-28T06:26:25;4.20;54.90
44063;DHT22;29727;47.606;19.130;2023-02-28T06:28:51;4.20;54.60
44063;DHT22;29727;47.606;19.130;2023-02-28T06:31:18;4.20;54.90
44063;DHT22;29727;47.606;19.130;2023-02-28T06:33:44;4.20;54.70
44063;DHT22;29727;47.606;19.130;2023-02-28T06:36:11;4.10;54.50
44063;DHT22;29727;47.606;19.130;2023-02-28T06:38:38;4.10;54.40
44063;DHT22;29727;47.606;19.130;2023-02-28T06:41:04;4.10;55.00
44063;DHT22;29727;47.606;19.130;2023-02-28T06:43:32;4.20;53.80
44063;DHT22;29727;47.606;19.130;2023-02-28T06:45:59;4.10;54.90
44063;DHT22;29727;47.606;19.130;2023-02-28T06:48:26;4.20;55.00
44063;DHT22;29727;47.606;19.130;2023-02-28T06:50:52;4.20;55.10
44063;DHT22;29727;47.606;19.130;2023-02-28T06:53:26;4.20;54.10
44063;DHT22;29727;47.606;19.130;2023-02-28T06:55:51;4.30;53.80
44063;DHT22;29727;47.606;19.130;2023-02-28T06:58:17;4.30;53.60
44063;DHT22;29727;47.606;19.130;2023-02-28T07:00:50;4.30;54.10
44063;DHT22;29727;47.606;19.130;2023-02-28T07:03:15;4.40;53.50
44063;DHT22;29727;47.606;19.130;2023-02-28T07:05:42;4.40;54.10
44063;DHT22;29727;47.606;19.130;2023-02-28T07:08:08;4.40;53.70
44063;DHT22;29727;47.606;19.130;2023-02-28T07:10:34;4.50;53.00
44063;DHT22;29727;47.606;19.130;2023-02-28T07:13:00;4.50;53.40
44063;DHT22;29727;47.606;19.130;2023-02-28T07:15:26;4.40;53.20
44063;DHT22;29727;47.606;19.130;2023-02-28T07:17:52;4.50;53.40
44063;DHT22;29727;47.606;19.130;2023-02-28T07:20:17;4.50;53.00
44063;DHT22;29727;47.606;19.130;2023-02-28T07:22:43;4.50;53.20
44063;DHT22;29727;47.606;19.130;2023-02-28T07:25:09;4.50;53.10
44063;DHT22;29727;47.606;19.130;2023-02-28T07:27:35;4.50;52.90
44063;DHT22;29727;47.606;19.130;2023-02-28T07:30:00;4.50;52.80
44063;DHT22;29727;47.606;19.130;2023-02-28T07:32:27;4.60;52.60
44063;DHT22;29727;47.606;19.130;2023-02-28T07:34:53;4.60;52.20
44063;DHT22;29727;47.606;19.130;2023-02-28T07:37:19;4.60;51.90
44063;DHT22;29727;47.606;19.130;2023-02-28T07:39:45;4.70;52.00
44063;DHT22;29727;47.606;19.130;2023-02-28T07:42:11;4.70;52.30
44063;DHT22;29727;47.606;19.130;2023-02-28T07:44:39;4.60;52.20
44063;DHT22;29727;47.606;19.130;2023-02-28T07:47:09;4.60;52.50
44063;DHT22;29727;47.606;19.130;2023-02-28T07:49:38;4.60;52.80
44063;DHT22;29727;47.606;19.130;2023-02-28T07:52:07;4.70;53.00
44063;DHT22;29727;47.606;19.130;2023-02-28T07:54:34;4.70;52.80
44063;DHT22;29727;47.606;19.130;2023-02-28T07:56:59;4.70;52.80
44063;DHT22;29727;47.606;19.130;2023-02-28T07:59:25;4.70;52.50
44063;DHT22;29727;47.606;19.130;2023-02-28T08:01:51;4.80;51.70
44063;DHT22;29727;47.606;19.130;2023-02-28T08:04:17;4.80;51.70
44063;DHT22;29727;47.606;19.130;2023-02-28T08:06:44;4.80;53.50
44063;DHT22;29727;47.606;19.130;2023-02-28T08:09:10;4.90;52.70
44063;DHT22;29727;47.606;19.130;2023-02-28T08:11:36;5.00;51.60
44063;DHT22;29727;47.606;19.130;2023-02-28T08:14:02;5.10;52.00
44063;DHT22;29727;47.606;19.130;2023-02-28T08:16:27;5.20;50.80
44063;DHT22;29727;47.606;19.130;2023-02-28T08:18:53;5.10;51.10
44063;DHT22;29727;47.606;19.130;2023-02-28T08:21:20;5.20;50.90
44063;DHT22;29727;47.606;19.130;2023-02-28T08:23:47;5.20;51.10
44063;DHT22;29727;47.606;19.130;2023-02-28T08:26:14;5.20;52.00
44063;DHT22;29727;47.606;19.130;2023-02-28T08:28:39;5.20;51.20
44063;DHT22;29727;47.606;19.130;2023-02-28T08:31:13;5.20;51.80
44063;DHT22;29727;47.606;19.130;2023-02-28T08:33:40;5.30;51.70
44063;DHT22;29727;47.606;19.130;2023-02-28T08:36:06;5.40;51.10
44063;DHT22;29727;47.606;19.130;2023-02-28T08:38:32;5.50;50.70
44063;DHT22;29727;47.606;19.130;2023-02-28T08:41:00;5.60;51.30
44063;DHT22;29727;47.606;19.130;2023-02-28T08:43:26;5.70;49.70
44063;DHT22;29727;47.606;19.130;2023-02-28T08:45:53;5.80;49.10
44063;DHT22;29727;47.606;19.130;2023-02-28T08:48:18;5.80;48.60
44063;DHT22;29727;47.606;19.130;2023-02-28T08:50:44;5.70;50.60
44063;DHT22;29727;47.606;19.130;2023-02-28T08:53:10;5.70;50.40
44063;DHT22;29727;47.606;19.130;2023-02-28T08:55:35;5.70;50.50
44063;DHT22;29727;47.606;19.130;2023-02-28T08:58:01;5.80;50.40
44063;DHT22;29727;47.606;19.130;2023-02-28T09:00:27;5.70;49.50
44063;DHT22;29727;47.606;19.130;2023-02-28T09:02:52;5.80;49.70
44063;DHT22;29727;47.606;19.130;2023-02-28T09:05:20;5.80;50.30
44063;DHT22;29727;47.606;19.130;2023-02-28T09:07:45;5.90;50.50
44063;DHT22;29727;47.606;19.130;2023-02-28T09:10:11;6.00;48.90
44063;DHT22;29727;47.606;19.130;2023-02-28T09:12:36;6.10;48.80
44063;DHT22;29727;47.606;19.130;2023-02-28T09:15:03;6.30;48.40
44063;DHT22;29727;47.606;19.130;2023-02-28T09:17:29;6.30;48.20
44063;DHT22;29727;47.606;19.130;2023-02-28T09:19:54;6.40;48.30
44063;DHT22;29727;47.606;19.130;2023-02-28T09:22:20;6.50;47.40
44063;DHT22;29727;47.606;19.130;2023-02-28T09:24:46;6.50;47.60
44063;DHT22;29727;47.606;19.130;2023-02-28T09:27:12;6.50;48.10
44063;DHT22;29727;47.606;19.130;2023-02-28T09:29:38;6.50;48.60
44063;DHT22;29727;47.606;19.130;2023-02-28T09:32:04;6.60;49.40
44063;DHT22;29727;47.606;19.130;2023-02-28T09:34:31;6.70;48.20
44063;DHT22;29727;47.606;19.130;2023-02-28T09:36:57;6.80;47.80
44063;DHT22;29727;47.606;19.130;2023-02-28T09:39:23;6.80;47.90
44063;DHT22;29727;47.606;19.130;2023-02-28T09:41:51;6.90;48.40
44063;DHT22;29727;47.606;19.130;2023-02-28T09:44:30;7.00;47.90
44063;DHT22;29727;47.606;19.130;2023-02-28T09:47:05;7.00;47.60
44063;DHT22;29727;47.606;19.130;2023-02-28T09:49:40;7.10;46.70
44063;DHT22;29727;47.606;19.130;2023-02-28T09:52:18;7.10;47.80
44063;DHT22;29727;47.606;19.130;2023-02-28T09:54:45;7.20;47.10
44063;DHT22;29727;47.606;19.130;2023-02-28T10:00:25;7.40;47.40
44063;DHT22;29727;47.606;19.130;2023-02-28T10:06:19;7.50;47.70
44063;DHT22;29727;47.606;19.130;2023-02-28T10:11:25;7.50;47.00
44063;DHT22;29727;47.606;19.130;2023-02-28T10:13:56;7.50;47.40
44063;DHT22;29727;47.606;19.130;2023-02-28T10:16:43;7.50;47.00
44063;DHT22;29727;47.606;19.130;2023-02-28T10:19:16;7.60;46.70
44063;DHT22;29727;47.606;19.130;2023-02-28T10:24:47;7.50;48.70
44063;DHT22;29727;47.606;19.130;2023-02-28T10:27:19;7.50;48.20
44063;DHT22;29727;47.606;19.130;2023-02-28T10:29:50;7.60;47.80
44063;DHT22;29727;47.606;19.130;2023-02-28T10:32:31;7.60;47.00
44063;DHT22;29727;47.606;19.130;2023-02-28T10:35:22;7.60;47.80
44063;DHT22;29727;47.606;19.130;2023-02-28T10:37:54;7.60;47.50
44063;DHT22;29727;47.606;19.130;2023-02-28T10:43:11;7.70;48.10
44063;DHT22;29727;47.606;19.130;2023-02-28T10:51:03;8.20;47.90
44063;DHT22;29727;47.606;19.130;2023-02-28T10:53:59;8.40;47.60
44063;DHT22;29727;47.606;19.130;2023-02-28T10:56:25;8.50;45.60
44063;DHT22;29727;47.606;19.130;2023-02-28T10:59:02;8.60;46.10
44063;DHT22;29727;47.606;19.130;2023-02-28T11:04:01;8.70;46.60
44063;DHT22;29727;47.606;19.130;2023-02-28T11:06:30;8.80;46.00
44063;DHT22;29727;47.606;19.130;2023-02-28T11:08:59;8.90;45.70
44063;DHT22;29727;47.606;19.130;2023-02-28T11:11:27;8.90;45.50
44063;DHT22;29727;47.606;19.130;2023-02-28T11:14:02;8.70;46.20
44063;DHT22;29727;47.606;19.130;2023-02-28T11:16:34;8.50;46.30
44063;DHT22;29727;47.606;19.130;2023-02-28T11:19:00;8.50;46.00
44063;DHT22;29727;47.606;19.130;2023-02-28T11:21:34;8.60;46.50
44063;DHT22;29727;47.606;19.130;2023-02-28T11:24:21;8.50;47.00
44063;DHT22;29727;47.606;19.130;2023-02-28T11:26:48;8.50;46.70
44063;DHT22;29727;47.606;19.130;2023-02-28T11:34:29;8.50;48.40
44063;DHT22;29727;47.606;19.130;2023-02-28T11:36:57;8.60;48.70
44063;DHT22;29727;47.606;19.130;2023-02-28T11:39:25;8.60;46.80
44063;DHT22;29727;47.606;19.130;2023-02-28T11:47:34;8.70;46.80
44063;DHT22;29727;47.606;19.130;2023-02-28T11:53:05;8.90;46.60
44063;DHT22;29727;47.606;19.130;2023-02-28T11:56:10;8.90;46.60
44063;DHT22;29727;47.606;19.130;2023-02-28T12:06:57;9.00;46.60
44063;DHT22;29727;47.606;19.130;2023-02-28T12:14:56;9.00;47.40
44063;DHT22;29727;47.606;19.130;2023-02-28T12:17:47;9.10;46.40
44063;DHT22;29727;47.606;19.130;2023-02-28T12:20:37;9.10;46.60
44063;DHT22;29727;47.606;19.130;2023-02-28T12:26:11;8.90;47.00
44063;DHT22;29727;47.606;19.130;2023-02-28T12:28:49;8.90;47.20
44063;DHT22;29727;47.606;19.130;2023-02-28T12:31:24;8.90;47.10
44063;DHT22;29727;47.606;19.130;2023-02-28T12:33:57;8.90;46.60
44063;DHT22;29727;47.606;19.130;2023-02-28T12:36:26;8.90;47.10
44063;DHT22;29727;47.606;19.130;2023-02-28T12:38:56;8.90;47.30
44063;DHT22;29727;47.606;19.130;2023-02-28T12:41:39;8.80;47.30
44063;DHT22;29727;47.606;19.130;2023-02-28T12:44:11;8.80;48.40
44063;DHT22;29727;47.606;19.130;2023-02-28T12:46:42;8.90;47.10
44063;DHT22;29727;47.606;19.130;2023-02-28T12:51:41;8.90;47.60
44063;DHT22;29727;47.606;19.130;2023-02-28T12:56:41;8.90;48.90
44063;DHT22;29727;47.606;19.130;2023-02-28T12:59:22;9.00;47.40
44063;DHT22;29727;47.606;19.130;2023-02-28T13:02:02;9.20;47.20
44063;DHT22;29727;47.606;19.130;2023-02-28T13:10:17;9.50;46.80
44063;DHT22;29727;47.606;19.130;2023-02-28T13:12:48;9.60;47.40
44063;DHT22;29727;47.606;19.130;2023-02-28T13:15:21;9.70;46.40
44063;DHT22;29727;47.606;19.130;2023-02-28T13:17:51;9.80;45.40
44063;DHT22;29727;47.606;19.130;2023-02-28T13:20:25;9.80;46.00
44063;DHT22;29727;47.606;19.130;2023-02-28T13:22:53;9.90;45.70
44063;DHT22;29727;47.606;19.130;2023-02-28T13:31:14;9.90;46.40
44063;DHT22;29727;47.606;19.130;2023-02-28T13:38:47;9.80;45.90
44063;DHT22;29727;47.606;19.130;2023-02-28T13:51:53;10.00;45.70
44063;DHT22;29727;47.606;19.130;2023-02-28T14:00:02;10.10;46.80
44063;DHT22;29727;47.606;19.130;2023-02-28T14:05:26;10.30;46.10
44063;DHT22;29727;47.606;19.130;2023-02-28T14:07:57;10.40;46.30
44063;DHT22;29727;47.606;19.130;2023-02-28T14:10:27;10.40;44.80
44063;DHT22;29727;47.606;19.130;2023-02-28T14:18:03;10.50;44.30
44063;DHT22;29727;47.606;19.130;2023-02-28T14:20:32;10.50;45.10
44063;DHT22;29727;47.606;19.130;2023-02-28T14:36:01;10.60;44.90
44063;DHT22;29727;47.606;19.130;2023-02-28T14:38:35;10.60;45.70
44063;DHT22;29727;47.606;19.130;2023-02-28T14:41:11;10.60;46.30
44063;DHT22;29727;47.606;19.130;2023-02-28T14:43:51;10.70;45.30
44063;DHT22;29727;47.606;19.130;2023-02-28T14:46:17;10.70;46.30
44063;DHT22;29727;47.606;19.130;2023-02-28T14:48:49;10.70;45.70
44063;DHT22;29727;47.606;19.130;2023-02-28T14:51:20;10.70;47.20
44063;DHT22;29727;47.606;19.130;2023-02-28T14:53:50;10.60;46.70
44063;DHT22;29727;47.606;19.130;2023-02-28T14:56:26;10.60;46.90
44063;DHT22;29727;47.606;19.130;2023-02-28T14:58:55;10.60;47.10
44063;DHT22;29727;47.606;19.130;2023-02-28T15:01:22;10.50;47.00
44063;DHT22;29727;47.606;19.130;2023-02-28T15:03:48;10.50;47.30
44063;DHT22;29727;47.606;19.130;2023-02-28T15:06:21;10.50;48.00
44063;DHT22;29727;47.606;19.130;2023-02-28T15:09:01;10.40;48.40
44063;DHT22;29727;47.606;19.130;2023-02-28T15:11:33;10.30;47.30
44063;DHT22;29727;47.606;19.130;2023-02-28T15:14:00;10.30;48.10
44063;DHT22;29727;47.606;19.130;2023-02-28T15:16:29;10.20;47.90
44063;DHT22;29727;47.606;19.130;2023-02-28T15:21:30;10.10;48.40
44063;DHT22;29727;47.606;19.130;2023-02-28T15:24:04;10.10;48.10
44063;DHT22;29727;47.606;19.130;2023-02-28T15:26:38;10.10;48.40
44063;DHT22;29727;47.606;19.130;2023-02-28T15:29:08;10.00;48.10
44063;DHT22;29727;47.606;19.130;2023-02-28T15:31:43;10.00;48.10
44063;DHT22;29727;47.606;19.130;2023-02-28T15:42:39;10.00;48.10
44063;DHT22;29727;47.606;19.130;2023-02-28T15:45:06;10.00;48.70
44063;DHT22;29727;47.606;19.130;2023-02-28T15:47:51;10.00;49.20
44063;DHT22;29727;47.606;19.130;2023-02-28T15:50:17;9.90;49.30
44063;DHT22;29727;47.606;19.130;2023-02-28T15:52:45;9.90;49.80
44063;DHT22;29727;47.606;19.130;2023-02-28T15:57:39;9.80;49.60
44063;DHT22;29727;47.606;19.130;2023-02-28T16:00:11;9.70;49.70
44063;DHT22;29727;47.606;19.130;2023-02-28T16:02:38;9.60;50.30
44063;DHT22;29727;47.606;19.130;2023-02-28T16:07:37;9.40;50.70
44063;DHT22;29727;47.606;19.130;2023-02-28T16:10:04;9.40;51.10
44063;DHT22;29727;47.606;19.130;2023-02-28T16:12:33;9.30;51.20
44063;DHT22;29727;47.606;19.130;2023-02-28T16:15:02;9.30;51.50
44063;DHT22;29727;47.606;19.130;2023-02-28T16:17:33;9.20;51.40
44063;DHT22;29727;47.606;19.130;2023-02-28T16:20:00;9.20;51.60
44063;DHT22;29727;47.606;19.130;2023-02-28T16:22:25;9.10;51.50
44063;DHT22;29727;47.606;19.130;2023-02-28T16:24:51;9.10;51.60
44063;DHT22;29727;47.606;19.130;2023-02-28T16:27:29;9.00;51.60
44063;DHT22;29727;47.606;19.130;2023-02-28T16:29:55;9.00;51.80
44063;DHT22;29727;47.606;19.130;2023-02-28T16:32:21;8.90;52.10
44063;DHT22;29727;47.606;19.130;2023-02-28T16:34:47;8.90;52.70
44063;DHT22;29727;47.606;19.130;2023-02-28T16:37:14;8.90;52.40
44063;DHT22;29727;47.606;19.130;2023-02-28T16:39:42;8.90;52.80
44063;DHT22;29727;47.606;19.130;2023-02-28T16:42:20;8.90;52.50
44063;DHT22;29727;47.606;19.130;2023-02-28T16:44:47;8.90;52.50
44063;DHT22;29727;47.606;19.130;2023-02-28T16:47:13;8.90;52.00
44063;DHT22;29727;47.606;19.130;2023-02-28T16:49:39;8.90;52.30
44063;DHT22;29727;47.606;19.130;2023-02-28T16:52:07;8.90;52.80
44063;DHT22;29727;47.606;19.130;2023-02-28T16:54:33;8.90;52.70
44063;DHT22;29727;47.606;19.130;2023-02-28T16:56:59;9.00;52.50
44063;DHT22;29727;47.606;19.130;2023-02-28T16:59:26;8.90;52.90
44063;DHT22;29727;47.606;19.130;2023-02-28T17:01:53;8.90;53.30
44063;DHT22;29727;47.606;19.130;2023-02-28T17:04:19;8.90;53.20
44063;DHT22;29727;47.606;19.130;2023-02-28T17:06:44;8.80;53.00
44063;DHT22;29727;47.606;19.130;2023-02-28T17:09:21;8.80;53.50
44063;DHT22;29727;47.606;19.130;2023-02-28T17:11:47;8.80;53.20
44063;DHT22;29727;47.606;19.130;2023-02-28T17:14:14;8.80;53.50
44063;DHT22;29727;47.606;19.130;2023-02-28T17:16:40;8.80;53.50
44063;DHT22;29727;47.606;19.130;2023-02-28T17:19:13;8.80;53.90
44063;DHT22;29727;47.606;19.130;2023-02-28T17:21:40;8.80;54.00
44063;DHT22;29727;47.606;19.130;2023-02-28T17:24:07;8.70;53.60
44063;DHT22;29727;47.606;19.130;2023-02-28T17:26:33;8.70;54.00
44063;DHT22;29727;47.606;19.130;2023-02-28T17:28:59;8.70;54.30
44063;DHT22;29727;47.606;19.130;2023-02-28T17:31:26;8.70;54.20
44063;DHT22;29727;47.606;19.130;2023-02-28T17:33:52;8.70;54.30
44063;DHT22;29727;47.606;19.130;2023-02-28T17:36:24;8.60;54.40
44063;DHT22;29727;47.606;19.130;2023-02-28T17:38:51;8.60;55.00
44063;DHT22;29727;47.606;19.130;2023-02-28T17:41:17;8.60;54.80
44063;DHT22;29727;47.606;19.130;2023-02-28T17:43:43;8.60;54.90
44063;DHT22;29727;47.606;19.130;2023-02-28T17:46:26;8.50;55.20
44063;DHT22;29727;47.606;19.130;2023-02-28T17:48:54;8.60;55.40
44063;DHT22;29727;47.606;19.130;2023-02-28T17:51:21;8.60;55.30
44063;DHT22;29727;47.606;19.130;2023-02-28T17:53:47;8.60;55.40
44063;DHT22;29727;47.606;19.130;2023-02-28T17:56:22;8.60;55.70
44063;DHT22;29727;47.606;19.130;2023-02-28T17:58:49;8.60;55.70
44063;DHT22;29727;47.606;19.130;2023-02-28T18:01:15;8.50;55.20
44063;DHT22;29727;47.606;19.130;2023-02-28T18:03:41;8.50;55.70
44063;DHT22;29727;47.606;19.130;2023-02-28T18:06:19;8.50;55.70
44063;DHT22;29727;47.606;19.130;2023-02-28T18:08:47;8.50;55.60
44063;DHT22;29727;47.606;19.130;2023-02-28T18:11:12;8.50;56.10
44063;DHT22;29727;47.606;19.130;2023-02-28T18:13:46;8.50;56.20
44063;DHT22;29727;47.606;19.130;2023-02-28T18:16:13;8.50;56.40
44063;DHT22;29727;47.606;19.130;2023-02-28T18:18:39;8.50;56.00
44063;DHT22;29727;47.606;19.130;2023-02-28T18:21:06;8.50;55.70
44063;DHT22;29727;47.606;19.130;2023-02-28T18:23:32;8.50;55.90
44063;DHT22;29727;47.606;19.130;2023-02-28T18:25:58;8.50;56.20
44063;DHT22;29727;47.606;19.130;2023-02-28T18:28:24;8.50;56.40
44063;DHT22;29727;47.606;19.130;2023-02-28T18:30:50;8.50;56.10
44063;DHT22;29727;47.606;19.130;2023-02-28T18:33:15;8.50;56.00
44063;DHT22;29727;47.606;19.130;2023-02-28T18:35:41;8.50;56.50